Time;durP1;ratioP1;P1;durP2;ratioP2;P2;SDS_P1;SDS_P2;PMS_P1;PMS_P2;Temp;Humidity;BMP_temperature;BMP_pressure;BME280_temperature;BME280_humidity;BME280_pressure;Samples;Min_cycle;Max_cycle;Signal;HPM_P1;HPM_P2
2021/09/13 00:01:26;;;;;;;35.97;8.20;;;;;;;15.87;81.74;100109.69;5108024;28;20016;-71
2021/09/13 00:03:51;;;;;;;36.92;6.47;;;;;;;15.89;81.86;100107.88;5108335;28;20107;-71
2021/09/13 00:06:17;;;;;;;40.35;7.15;;;;;;;15.83;82.11;100108.94;5107924;28;20020;-71
2021/09/13 00:08:42;;;;;;;40.60;7.53;;;;;;;15.86;82.02;100111.44;5108062;28;20028;-71
2021/09/13 00:11:08;;;;;;;38.80;8.48;;;;;;;15.88;82.18;100116.63;5108087;28;20145;-71
2021/09/13 00:13:33;;;;;;;35.53;6.90;;;;;;;15.88;82.06;100113.16;5108359;28;20099;-71
2021/09/13 00:15:59;;;;;;;44.10;7.43;;;;;;;15.92;81.84;100118.25;5107967;28;20052;-71
2021/09/13 00:18:24;;;;;;;40.50;7.75;;;;;;;15.95;82.06;100123.38;5090530;28;20027;-71
2021/09/13 00:20:49;;;;;;;36.42;7.65;;;;;;;15.92;82.19;100123.47;5107482;28;20040;-70
2021/09/13 00:23:15;;;;;;;37.25;7.43;;;;;;;15.92;82.19;100122.63;5107901;28;20097;-70
2021/09/13 00:25:40;;;;;;;39.70;7.45;;;;;;;15.86;82.70;100118.47;5089504;28;20053;-70
2021/09/13 00:28:05;;;;;;;38.15;7.60;;;;;;;15.86;82.79;100116.69;5107855;28;20064;-70
2021/09/13 00:30:31;;;;;;;32.75;8.00;;;;;;;15.83;82.88;100136.91;5107779;28;20032;-70
2021/09/13 00:32:56;;;;;;;48.40;8.48;;;;;;;15.81;83.17;100129.09;5089166;28;20115;-70
2021/09/13 00:35:25;;;;;;;33.75;7.53;;;;;;;15.82;83.47;100133.41;5107690;28;20017;-70
2021/09/13 00:37:50;;;;;;;47.10;8.75;;;;;;;15.78;83.50;100128.34;5107428;28;20028;-70
2021/09/13 00:40:16;;;;;;;35.13;7.28;;;;;;;15.79;83.95;100128.28;5107467;28;20027;-70
2021/09/13 00:42:41;;;;;;;42.58;8.75;;;;;;;15.77;84.02;100130.09;5106788;28;20027;-70
2021/09/13 00:45:07;;;;;;;51.30;7.65;;;;;;;15.73;84.31;100136.34;5107152;28;20031;-70
2021/09/13 00:47:32;;;;;;;54.05;10.43;;;;;;;15.73;84.47;100133.72;5107340;28;20048;-70
2021/09/13 00:49:58;;;;;;;47.63;9.20;;;;;;;15.78;84.15;100139.66;5107385;28;20048;-71
2021/09/13 00:52:23;;;;;;;39.38;7.90;;;;;;;15.79;84.58;100132.66;5107098;28;20028;-70
2021/09/13 00:54:48;;;;;;;47.67;8.00;;;;;;;15.80;84.61;100139.63;5107128;28;20034;-70
2021/09/13 00:57:14;;;;;;;40.00;8.73;;;;;;;15.82;84.56;100143.00;5107186;28;20149;-70
2021/09/13 00:59:40;;;;;;;37.05;8.55;;;;;;;15.82;84.41;100133.41;5106937;28;20024;-70
2021/09/13 01:02:06;;;;;;;44.22;8.55;;;;;;;15.84;84.55;100136.84;5107061;28;20024;-70
2021/09/13 01:04:31;;;;;;;44.17;9.25;;;;;;;15.88;84.26;100141.97;5106869;28;20383;-70
2021/09/13 01:06:56;;;;;;;52.22;9.30;;;;;;;15.89;84.31;100134.06;5106642;28;20023;-70
2021/09/13 01:09:22;;;;;;;39.75;8.60;;;;;;;15.89;84.16;100133.19;5106795;28;20042;-70
2021/09/13 01:11:49;;;;;;;53.22;8.40;;;;;;;15.89;84.24;100146.28;5106664;28;20035;-70
2021/09/13 01:14:16;;;;;;;44.08;7.95;;;;;;;15.85;84.74;100133.31;5106746;28;20028;-70
2021/09/13 01:16:42;;;;;;;41.97;9.05;;;;;;;15.88;84.43;100142.81;5106680;28;20019;-70
2021/09/13 01:19:07;;;;;;;44.42;8.85;;;;;;;15.89;84.27;100123.59;5106764;28;20037;-70
2021/09/13 01:21:35;;;;;;;41.58;8.52;;;;;;;15.94;84.33;100128.66;5106279;28;20092;-69
2021/09/13 01:24:00;;;;;;;35.42;8.45;;;;;;;15.94;84.32;100126.03;5106548;28;20036;-69
2021/09/13 01:26:26;;;;;;;46.58;9.23;;;;;;;15.90;84.42;100121.81;5106519;28;20026;-69
2021/09/13 01:28:51;;;;;;;52.42;9.13;;;;;;;15.84;84.47;100115.03;5106519;28;20015;-70
2021/09/13 01:31:16;;;;;;;48.78;9.10;;;;;;;15.90;84.61;100125.28;5106218;28;20024;-70
2021/09/13 01:33:42;;;;;;;37.92;8.68;;;;;;;15.90;84.60;100124.41;5106409;28;20027;-70
2021/09/13 01:36:07;;;;;;;42.45;8.45;;;;;;;15.89;84.54;100136.69;5106406;28;20405;-70
2021/09/13 01:38:33;;;;;;;48.67;9.32;;;;;;;15.90;84.62;100134.88;5106237;28;20020;-70
2021/09/13 01:40:58;;;;;;;36.30;8.80;;;;;;;15.88;84.86;100134.13;5105897;28;20399;-70
2021/09/13 01:43:23;;;;;;;46.53;8.88;;;;;;;15.89;84.94;100141.03;5106169;28;20027;-70
2021/09/13 01:45:49;;;;;;;42.30;10.02;;;;;;;15.90;84.88;100142.75;5105662;28;20032;-70
2021/09/13 01:48:14;;;;;;;36.75;7.68;;;;;;;15.96;84.56;100146.00;5106053;28;20038;-69
2021/09/13 01:50:40;;;;;;;40.08;8.40;;;;;;;16.06;84.31;100150.94;5105937;28;20070;-69
2021/09/13 01:53:06;;;;;;;39.25;10.43;;;;;;;16.07;84.49;100160.53;5105901;28;20054;-69
2021/09/13 01:55:32;;;;;;;41.88;9.07;;;;;;;16.09;84.48;100156.06;5105312;28;20020;-70
2021/09/13 01:57:57;;;;;;;46.53;9.30;;;;;;;16.03;84.81;100148.44;5105949;28;20031;-69
2021/09/13 02:00:22;;;;;;;44.20;9.27;;;;;;;16.04;84.52;100148.38;5105720;28;20028;-69
2021/09/13 02:02:48;;;;;;;44.33;8.25;;;;;;;16.12;84.50;100157.75;5105770;28;20037;-69
2021/09/13 02:05:13;;;;;;;42.70;9.38;;;;;;;16.10;84.86;100163.88;5105646;28;20525;-69
2021/09/13 02:07:38;;;;;;;41.20;8.68;;;;;;;16.13;84.43;100165.56;5105782;28;20024;-70
2021/09/13 02:10:05;;;;;;;54.88;10.85;;;;;;;16.19;84.55;100167.09;5105688;28;20032;-69
2021/09/13 02:12:31;;;;;;;34.60;8.80;;;;;;;16.16;84.36;100175.06;5105379;28;20023;-70
2021/09/13 02:14:56;;;;;;;34.88;6.97;;;;;;;16.09;83.92;100183.13;5105471;28;20107;-72
2021/09/13 02:17:22;;;;;;;19.58;4.60;;;;;;;15.98;83.73;100182.63;5105811;28;20075;-70
2021/09/13 02:19:48;;;;;;;17.02;4.53;;;;;;;15.78;84.08;100189.41;5105341;28;20031;-69
2021/09/13 02:22:14;;;;;;;13.15;3.97;;;;;;;15.52;84.79;100198.09;5105324;28;20048;-70
2021/09/13 02:24:39;;;;;;;14.25;4.28;;;;;;;15.29;85.05;100203.16;5105510;28;20035;-68
2021/09/13 02:27:05;;;;;;;11.35;4.28;;;;;;;15.15;86.01;100203.59;5105388;28;20111;-69
2021/09/13 02:29:30;;;;;;;23.88;4.75;;;;;;;15.03;86.55;100207.41;5105518;28;20177;-69
2021/09/13 02:31:55;;;;;;;19.10;5.03;;;;;;;14.91;87.22;100207.78;5105278;28;20424;-69
2021/09/13 02:34:21;;;;;;;20.40;5.75;;;;;;;14.87;87.66;100212.28;5105498;28;20028;-70
2021/09/13 02:36:46;;;;;;;14.13;5.15;;;;;;;14.83;88.46;100215.88;5105272;28;20027;-70
2021/09/13 02:39:11;;;;;;;12.98;4.30;;;;;;;14.78;88.62;100221.19;5105397;28;20027;-69
2021/09/13 02:41:39;;;;;;;21.10;4.95;;;;;;;14.72;88.89;100218.75;5105464;28;20024;-70
2021/09/13 02:44:05;;;;;;;16.77;5.55;;;;;;;14.70;89.40;100218.81;5105484;28;20320;-70
2021/09/13 02:46:30;;;;;;;13.98;4.30;;;;;;;14.68;89.93;100218.00;5105199;28;20024;-70
2021/09/13 02:48:55;;;;;;;11.60;3.75;;;;;;;14.66;90.17;100218.94;5105186;28;20028;-70
2021/09/13 02:51:21;;;;;;;6.38;3.03;;;;;;;14.60;90.08;100215.59;5086788;28;20085;-69
2021/09/13 02:53:46;;;;;;;8.73;3.75;;;;;;;14.56;90.29;100219.22;5105261;28;20102;-70
2021/09/13 02:56:11;;;;;;;16.52;4.43;;;;;;;14.50;90.99;100222.00;5105441;28;20120;-70
2021/09/13 02:58:37;;;;;;;8.85;3.15;;;;;;;14.49;90.78;100228.09;5087048;28;20039;-69
2021/09/13 03:01:02;;;;;;;13.43;3.90;;;;;;;14.41;90.97;100237.94;5104840;28;20027;-69
2021/09/13 03:03:28;;;;;;;12.60;4.25;;;;;;;14.36;91.47;100232.81;5105321;28;20369;-70
2021/09/13 03:05:53;;;;;;;8.40;3.90;;;;;;;14.36;91.61;100231.06;5106541;28;20028;-70
2021/09/13 03:08:18;;;;;;;6.63;3.35;;;;;;;14.30;91.22;100236.44;5109565;28;20422;-69
2021/09/13 03:10:45;;;;;;;10.45;4.35;;;;;;;14.27;91.73;100244.34;5109249;28;20531;-70
2021/09/13 03:13:11;;;;;;;11.55;4.28;;;;;;;14.28;91.57;100246.06;5109062;28;20060;-70
2021/09/13 03:15:37;;;;;;;6.90;4.05;;;;;;;14.23;91.88;100243.56;5108960;28;20012;-69
2021/09/13 03:18:03;;;;;;;6.95;3.00;;;;;;;14.22;91.93;100252.31;5109096;28;20027;-69
2021/09/13 03:20:28;;;;;;;5.93;3.85;;;;;;;14.18;91.99;100255.91;5109104;28;20035;-70
2021/09/13 03:22:54;;;;;;;8.15;3.45;;;;;;;14.16;91.95;100257.69;5108854;28;20048;-69
2021/09/13 03:25:19;;;;;;;9.43;3.95;;;;;;;14.08;92.32;100263.13;5108852;28;20024;-69
2021/09/13 03:27:45;;;;;;;6.40;3.35;;;;;;;14.10;92.17;100256.13;5108804;28;20102;-69
2021/09/13 03:30:11;;;;;;;7.57;3.22;;;;;;;14.03;92.32;100266.72;5108722;28;20032;-69
2021/09/13 03:32:36;;;;;;;12.20;4.03;;;;;;;13.99;92.17;100265.97;5108753;28;20028;-68
2021/09/13 03:35:01;;;;;;;8.50;3.22;;;;;;;13.95;92.31;100269.53;5108561;28;20023;-68
2021/09/13 03:37:27;;;;;;;6.63;3.80;;;;;;;13.93;92.31;100281.78;5108564;28;20023;-68
2021/09/13 03:39:52;;;;;;;6.38;3.17;;;;;;;13.93;92.42;100268.72;5108787;28;20024;-68
2021/09/13 03:42:18;;;;;;;7.20;3.30;;;;;;;13.92;92.81;100267.88;5108569;28;20031;-68
2021/09/13 03:44:43;;;;;;;6.72;3.20;;;;;;;13.95;92.58;100277.34;5108602;28;20091;-69
2021/09/13 03:47:08;;;;;;;8.02;3.55;;;;;;;13.96;92.31;100279.09;5108310;28;20095;-69
2021/09/13 03:49:34;;;;;;;7.07;3.33;;;;;;;13.94;92.58;100283.47;5108418;28;20092;-69
2021/09/13 03:51:59;;;;;;;6.63;3.47;;;;;;;13.90;92.39;100282.69;5108461;28;20035;-70
2021/09/13 03:54:25;;;;;;;4.93;2.88;;;;;;;13.85;92.38;100290.63;5108647;28;20031;-69
2021/09/13 03:56:50;;;;;;;8.00;3.00;;;;;;;13.84;92.71;100298.50;5108280;28;20024;-68
2021/09/13 03:59:15;;;;;;;5.05;2.72;;;;;;;13.81;92.44;100304.66;5108307;28;20024;-68
2021/09/13 04:01:41;;;;;;;7.05;2.30;;;;;;;13.84;91.73;100303.72;5107921;28;20035;-67
2021/09/13 04:04:07;;;;;;;5.80;2.92;;;;;;;13.74;92.10;100301.31;5108486;28;20027;-71
2021/09/13 04:11:27;;;;;;;5.70;2.33;;;;;;;13.65;91.89;100313.72;5108035;28;20032;-68
2021/09/13 04:13:52;;;;;;;4.07;2.30;;;;;;;13.70;91.57;100317.97;5089886;28;20028;-69
2021/09/13 04:16:17;;;;;;;5.38;2.72;;;;;;;13.68;92.04;100324.94;5107666;28;20022;-68
2021/09/13 04:18:43;;;;;;;3.28;2.20;;;;;;;13.67;92.02;100325.00;5107094;28;20053;-67
2021/09/13 04:21:08;;;;;;;4.88;2.30;;;;;;;13.64;92.24;100328.53;5107694;28;20044;-66
2021/09/13 04:23:34;;;;;;;3.63;1.88;;;;;;;13.59;92.24;100320.81;5108329;28;20034;-66
2021/09/13 04:25:59;;;;;;;3.88;2.00;;;;;;;13.65;92.00;100335.47;5107536;28;20101;-63
2021/09/13 04:28:25;;;;;;;3.83;1.67;;;;;;;13.61;91.94;100347.69;5107874;28;20032;-68
2021/09/13 04:30:50;;;;;;;4.78;1.65;;;;;;;13.61;92.03;100339.88;5107435;28;20023;-72
2021/09/13 04:33:15;;;;;;;3.42;1.85;;;;;;;13.60;92.27;100338.16;5107565;28;20097;-71
2021/09/13 04:35:41;;;;;;;3.40;2.00;;;;;;;13.54;91.92;100338.31;5107371;28;20038;-72
2021/09/13 04:38:06;;;;;;;3.40;1.77;;;;;;;13.52;92.02;100334.88;5107606;28;20175;-71
2021/09/13 04:40:32;;;;;;;2.67;1.60;;;;;;;13.57;91.92;100342.59;5107611;28;20467;-73
2021/09/13 04:42:57;;;;;;;2.28;1.48;;;;;;;13.57;91.52;100346.06;5107499;28;20027;-73
2021/09/13 04:45:22;;;;;;;3.88;2.10;;;;;;;13.54;91.67;100353.09;5106999;28;20592;-72
2021/09/13 04:47:48;;;;;;;4.93;1.80;;;;;;;13.51;91.41;100357.47;5089439;28;20016;-72
2021/09/13 04:50:13;;;;;;;2.65;1.90;;;;;;;13.48;91.73;100360.13;5107272;28;20093;-72
2021/09/13 04:52:39;;;;;;;3.92;1.65;;;;;;;13.48;91.95;100349.69;5107536;28;20050;-71
2021/09/13 04:55:05;;;;;;;3.13;1.50;;;;;;;13.46;92.09;100351.47;5107466;28;20065;-70
2021/09/13 04:57:30;;;;;;;3.88;1.95;;;;;;;13.46;91.49;100361.03;5107391;28;20028;-70
2021/09/13 04:59:55;;;;;;;3.78;1.88;;;;;;;13.41;91.35;100358.53;5107029;28;20023;-69
2021/09/13 05:02:21;;;;;;;2.75;1.40;;;;;;;13.35;91.75;100353.47;5107238;28;20020;-70
2021/09/13 05:04:46;;;;;;;3.47;1.73;;;;;;;13.44;91.64;100357.59;5107167;28;20043;-71
2021/09/13 05:07:11;;;;;;;3.67;1.48;;;;;;;13.43;91.66;100358.50;5107033;28;20036;-70
2021/09/13 05:09:37;;;;;;;3.25;1.50;;;;;;;13.51;92.25;100370.50;5107056;28;20047;-71
2021/09/13 05:12:02;;;;;;;3.63;1.52;;;;;;;13.63;92.78;100369.41;5106884;28;20045;-70
2021/09/13 05:14:28;;;;;;;2.92;1.45;;;;;;;13.75;92.85;100370.88;5106772;28;20027;-68
2021/09/13 05:16:53;;;;;;;6.93;1.95;;;;;;;13.80;92.47;100368.16;5106618;28;20028;-69
2021/09/13 05:19:18;;;;;;;2.83;1.80;;;;;;;13.75;92.21;100376.09;5106527;28;20102;-69
2021/09/13 05:21:44;;;;;;;3.17;1.40;;;;;;;13.74;91.78;100376.13;5106530;28;20511;-69
2021/09/13 05:24:09;;;;;;;2.63;1.30;;;;;;;13.70;91.88;100377.09;5106745;28;20034;-69
2021/09/13 05:26:34;;;;;;;4.03;1.70;;;;;;;13.63;91.44;100385.06;5106767;28;20057;-68
2021/09/13 05:29:00;;;;;;;2.75;1.60;;;;;;;13.71;91.09;100402.28;5087366;28;20028;-68
2021/09/13 05:31:25;;;;;;;14.85;2.00;;;;;;;13.67;90.82;100398.91;5106276;28;20487;-67
2021/09/13 05:33:51;;;;;;;2.55;1.45;;;;;;;13.63;90.56;100390.28;5106815;28;20027;-67
2021/09/13 05:36:17;;;;;;;2.47;1.30;;;;;;;13.66;90.58;100394.56;5106560;28;20027;-67
2021/09/13 05:38:42;;;;;;;2.70;1.70;;;;;;;13.72;90.52;100404.00;5106465;28;20020;-67
2021/09/13 05:41:08;;;;;;;4.78;1.60;;;;;;;13.74;90.75;100412.66;5087908;28;20026;-67
2021/09/13 05:43:33;;;;;;;4.18;1.65;;;;;;;13.82;91.66;100409.88;5106153;28;20031;-66
2021/09/13 05:45:58;;;;;;;2.72;1.67;;;;;;;14.16;91.94;100416.09;5106062;28;20023;-67
2021/09/13 05:48:24;;;;;;;2.80;1.30;;;;;;;14.60;93.24;100414.16;5106523;28;20064;-67
2021/09/13 05:50:50;;;;;;;3.75;1.55;;;;;;;15.14;93.44;100423.28;5106362;28;20472;-67
2021/09/13 05:53:16;;;;;;;1.83;1.13;;;;;;;15.60;93.40;100432.44;5106290;28;20031;-67
2021/09/13 05:55:43;;;;;;;3.17;1.40;;;;;;;15.98;93.69;100440.09;5106252;28;20020;-67
2021/09/13 05:58:12;;;;;;;6.57;1.20;;;;;;;16.49;94.42;100439.38;5106349;28;20023;-67
2021/09/13 06:00:38;;;;;;;3.47;1.20;;;;;;;16.87;92.93;100439.00;5106231;28;20083;-67
2021/09/13 06:03:05;;;;;;;3.03;1.17;;;;;;;17.15;91.91;100439.84;5106251;28;20077;-68
2021/09/13 06:05:31;;;;;;;2.13;1.00;;;;;;;17.29;87.72;100437.56;5105984;28;20016;-67
2021/09/13 06:07:56;;;;;;;2.78;1.02;;;;;;;17.18;85.63;100439.72;5106081;28;20031;-67
2021/09/13 06:10:22;;;;;;;1.98;1.10;;;;;;;16.89;85.42;100444.19;5106108;28;20023;-68
2021/09/13 06:12:47;;;;;;;6.60;1.52;;;;;;;16.55;84.07;100447.03;5105855;28;20040;-68
2021/09/13 06:15:13;;;;;;;3.17;1.52;;;;;;;16.14;83.28;100449.22;5105810;28;20132;-67
2021/09/13 06:17:38;;;;;;;5.75;1.20;;;;;;;15.80;82.79;100459.78;5087877;28;20046;-67
2021/09/13 06:20:04;;;;;;;5.57;1.20;;;;;;;15.46;82.60;100439.84;5106662;28;20061;-67
2021/09/13 06:22:31;;;;;;;2.33;1.20;;;;;;;15.10;83.50;100453.88;5106390;28;20422;-68
2021/09/13 06:24:56;;;;;;;3.45;1.50;;;;;;;14.84;84.52;100460.66;5105712;28;20051;-68
2021/09/13 06:27:21;;;;;;;5.45;2.28;;;;;;;14.60;84.70;100458.56;5105613;28;20029;-68
2021/09/13 06:29:47;;;;;;;5.47;2.72;;;;;;;14.42;84.72;100466.84;5105687;28;20028;-68
2021/09/13 06:32:12;;;;;;;4.25;1.50;;;;;;;14.37;84.54;100467.81;5105606;28;20035;-68
2021/09/13 06:34:37;;;;;;;4.18;1.40;;;;;;;14.24;85.59;100474.22;5105728;28;20048;-67
2021/09/13 06:37:03;;;;;;;3.33;1.70;;;;;;;14.16;85.05;100476.13;5105544;28;20019;-68
2021/09/13 06:39:29;;;;;;;2.88;1.52;;;;;;;14.04;85.32;100474.66;5105417;28;20507;-68
2021/09/13 06:41:54;;;;;;;3.10;1.48;;;;;;;14.07;85.04;100472.84;5105130;28;20072;-67
2021/09/13 06:44:23;;;;;;;4.32;1.42;;;;;;;13.99;85.45;100490.44;5105488;28;20400;-67
2021/09/13 06:47:21;;;;;;;6.03;1.48;;;;;;;13.92;85.30;100483.59;5105316;28;20065;-68
2021/09/13 06:49:37;;;;;;;3.80;1.65;;;;;;;14.04;86.35;100504.22;5104745;28;20044;-67
2021/09/13 06:52:06;;;;;;;1.73;1.23;;;;;;;14.20;86.02;100506.53;5105422;28;20016;-68
2021/09/13 06:54:31;;;;;;;2.53;1.40;;;;;;;14.24;86.27;100503.81;5105410;28;20024;-67
2021/09/13 06:56:58;;;;;;;2.40;1.35;;;;;;;14.29;84.67;100508.06;5105420;28;20152;-68
2021/09/13 06:59:24;;;;;;;3.78;1.80;;;;;;;14.26;83.87;100519.44;5105546;28;20028;-67
2021/09/13 07:01:50;;;;;;;4.30;1.42;;;;;;;14.10;84.25;100504.13;5104937;28;20024;-68
2021/09/13 07:04:15;;;;;;;1.88;1.30;;;;;;;14.02;84.55;100515.59;5105460;28;20028;-67
2021/09/13 07:06:41;;;;;;;3.20;1.20;;;;;;;13.90;84.69;100498.47;5087092;28;20016;-68
2021/09/13 07:09:06;;;;;;;1.80;1.20;;;;;;;13.96;84.28;100508.75;5105285;28;20024;-67
2021/09/13 07:11:31;;;;;;;3.97;1.38;;;;;;;13.96;84.75;100516.59;5104682;28;20044;-66
2021/09/13 07:13:57;;;;;;;3.67;1.38;;;;;;;14.03;85.11;100517.31;5105189;28;20031;-67
2021/09/13 07:16:23;;;;;;;2.42;1.27;;;;;;;14.03;84.99;100512.94;5105059;28;20016;-69
2021/09/13 07:18:48;;;;;;;3.00;1.50;;;;;;;14.02;83.95;100518.19;5105178;28;20020;-68
2021/09/13 07:21:15;;;;;;;2.60;1.25;;;;;;;13.89;84.33;100528.91;5086714;28;20561;-67
2021/09/13 07:23:40;;;;;;;2.10;1.42;;;;;;;13.80;83.21;100542.97;5104883;28;20024;-67
2021/09/13 07:26:06;;;;;;;1.90;1.13;;;;;;;13.69;83.31;100531.91;5086793;28;20020;-68
2021/09/13 07:28:31;;;;;;;2.90;1.30;;;;;;;13.56;84.01;100555.59;5105119;28;20024;-68
2021/09/13 07:30:57;;;;;;;2.85;1.15;;;;;;;13.54;83.34;100544.34;5104934;28;20456;-66
2021/09/13 07:33:23;;;;;;;8.52;1.40;;;;;;;13.54;83.14;100554.78;5105116;28;20472;-67
2021/09/13 07:35:48;;;;;;;2.15;1.20;;;;;;;13.44;83.67;100559.28;5104796;28;20031;-67
2021/09/13 07:38:14;;;;;;;2.90;1.20;;;;;;;13.50;83.84;100566.13;5104866;28;20048;-67
2021/09/13 07:40:41;;;;;;;2.35;1.35;;;;;;;13.54;83.71;100574.78;5104820;28;20024;-67
2021/09/13 07:43:07;;;;;;;1.83;1.20;;;;;;;13.54;83.68;100574.78;5104797;28;20024;-67
2021/09/13 07:45:32;;;;;;;2.40;1.40;;;;;;;13.49;83.55;100565.28;5104709;28;20058;-66
2021/09/13 07:47:58;;;;;;;2.15;1.23;;;;;;;13.65;84.92;100572.84;5104711;28;20020;-66
2021/09/13 07:50:23;;;;;;;4.78;1.52;;;;;;;14.11;84.81;100562.38;5104870;28;20433;-66
2021/09/13 07:52:48;;;;;;;1.95;0.93;;;;;;;14.59;83.65;100577.03;5105970;28;20445;-67
2021/09/13 07:55:14;;;;;;;3.58;1.58;;;;;;;15.31;81.10;100577.13;5108615;28;20031;-67
2021/09/13 07:57:39;;;;;;;2.08;1.10;;;;;;;15.63;80.94;100579.78;5108330;28;20078;-67
2021/09/13 08:00:05;;;;;;;3.03;1.20;;;;;;;15.71;78.57;100586.53;5108197;28;20024;-66
2021/09/13 08:02:31;;;;;;;1.63;1.13;;;;;;;15.95;78.41;100589.38;5108106;28;20028;-66
2021/09/13 08:04:59;;;;;;;4.53;1.10;;;;;;;16.30;78.16;100583.19;5108250;28;20026;-66
2021/09/13 08:07:25;;;;;;;4.55;1.40;;;;;;;16.79;78.49;100588.69;5108017;28;20043;-65
2021/09/13 08:09:50;;;;;;;1.60;1.00;;;;;;;17.21;75.36;100603.13;5107920;28;20023;-66
2021/09/13 08:12:16;;;;;;;1.67;1.00;;;;;;;17.37;73.07;100591.25;5107997;28;20023;-66
2021/09/13 08:14:41;;;;;;;2.75;1.00;;;;;;;17.46;71.06;100596.19;5108142;28;20099;-68
2021/09/13 08:17:06;;;;;;;1.60;1.20;;;;;;;17.45;69.64;100608.47;5107850;28;20126;-66
2021/09/13 08:19:32;;;;;;;1.10;1.00;;;;;;;17.48;69.79;100596.16;5107902;28;20084;-65
2021/09/13 08:21:57;;;;;;;1.98;1.42;;;;;;;17.44;68.24;100604.09;5107462;28;20040;-65
2021/09/13 08:24:23;;;;;;;1.20;0.90;;;;;;;17.43;68.61;100609.41;5107829;28;20084;-65
2021/09/13 08:26:48;;;;;;;1.90;1.15;;;;;;;17.64;67.48;100607.81;5107851;28;20016;-66
2021/09/13 08:29:18;;;;;;;4.00;0.95;;;;;;;17.83;69.79;100615.91;5107914;28;20060;-66
2021/09/13 08:31:44;;;;;;;1.77;1.05;;;;;;;18.10;70.25;100607.06;5107269;28;20033;-67
2021/09/13 08:34:11;;;;;;;3.10;1.00;;;;;;;18.57;69.11;100608.00;5107551;28;20028;-66
2021/09/13 08:36:37;;;;;;;1.58;0.80;;;;;;;19.06;68.04;100607.81;5107632;28;20084;-66
2021/09/13 08:39:03;;;;;;;2.92;1.10;;;;;;;19.62;66.55;100607.28;5107578;28;20020;-67
2021/09/13 08:41:28;;;;;;;4.07;0.95;;;;;;;19.84;66.07;100622.13;5107622;28;20079;-67
2021/09/13 08:43:57;;;;;;;1.10;0.80;;;;;;;19.90;66.43;100621.03;5107487;28;20031;-66
2021/09/13 08:46:33;;;;;;;2.15;0.90;;;;;;;19.50;66.94;100635.00;5107209;28;20045;-67
2021/09/13 08:49:04;;;;;;;3.63;1.63;;;;;;;19.04;67.87;100646.47;5107561;28;20051;-67
2021/09/13 08:51:30;;;;;;;2.22;1.00;;;;;;;18.55;67.16;100650.13;5107173;28;20111;-66
2021/09/13 08:54:00;;;;;;;11.65;2.05;;;;;;;17.98;67.75;100658.28;5107056;28;20032;-66
2021/09/13 08:56:29;;;;;;;5.10;0.90;;;;;;;17.58;69.05;100656.16;5107457;28;20046;-66
2021/09/13 08:58:56;;;;;;;1.30;0.90;;;;;;;17.43;69.81;100661.91;5107107;28;20604;-66
2021/09/13 09:01:21;;;;;;;4.18;1.00;;;;;;;18.21;68.66;100667.16;5089048;28;20035;-66
2021/09/13 09:03:50;;;;;;;3.55;1.20;;;;;;;19.19;68.11;100654.69;5106693;28;20016;-66
2021/09/13 09:06:32;;;;;;;3.45;1.15;;;;;;;20.05;64.30;100672.22;5107078;28;20070;-66
2021/09/13 09:08:59;;;;;;;;;;;;;;;19.98;64.75;100663.72;5107579;28;20055;-66
2021/09/13 09:11:24;;;;;;;3.15;1.40;;;;;;;20.22;63.75;100670.59;5107067;28;19908;-67
2021/09/13 09:13:49;;;;;;;1.63;1.00;;;;;;;20.27;61.28;100684.44;5106783;28;20027;-67
2021/09/13 09:16:16;;;;;;;2.53;1.00;;;;;;;20.27;60.61;100680.00;5106861;28;20023;-67
2021/09/13 09:18:45;;;;;;;2.20;0.93;;;;;;;20.43;57.19;100680.16;5106837;28;20107;-68
2021/09/13 09:21:13;;;;;;;2.03;1.15;;;;;;;20.47;59.23;100677.41;5106495;28;20047;-67
2021/09/13 09:23:58;;;;;;;1.50;1.00;;;;;;;20.86;58.94;100668.56;5106711;28;20050;-68
2021/09/13 09:26:25;;;;;;;2.05;1.10;;;;;;;21.48;57.55;100677.94;5106680;28;20055;-67
2021/09/13 09:28:51;;;;;;;3.05;1.10;;;;;;;21.33;56.81;100681.31;5088374;28;20036;-67
2021/09/13 09:31:44;;;;;;;1.20;0.80;;;;;;;21.75;57.24;100690.66;5106511;28;20435;-67
2021/09/13 09:34:22;;;;;;;5.97;1.42;;;;;;;21.70;57.13;100679.47;5103113;28;20036;-67
2021/09/13 09:37:06;;;;;;;3.30;0.80;;;;;;;22.06;56.81;100684.75;5106333;28;20066;-67
2021/09/13 09:39:42;;;;;;;1.65;0.77;;;;;;;22.35;54.21;100685.81;5106442;28;20021;-67
2021/09/13 09:42:11;;;;;;;0.90;0.70;;;;;;;22.11;52.65;100682.72;5106400;28;20052;-66
2021/09/13 09:44:38;;;;;;;3.67;0.85;;;;;;;21.77;52.62;100693.25;5106608;28;20070;-67
2021/09/13 09:47:08;;;;;;;1.88;0.60;;;;;;;21.45;51.98;100706.28;5105978;28;20099;-67
2021/09/13 09:49:46;;;;;;;3.80;1.13;;;;;;;21.28;52.79;100692.09;5106603;28;20044;-67
2021/09/13 09:52:25;;;;;;;0.85;0.50;;;;;;;21.45;52.24;100699.22;5106231;28;20061;-67
2021/09/13 09:55:07;;;;;;;0.80;0.60;;;;;;;21.53;52.57;100691.72;5106200;28;20458;-67
2021/09/13 09:57:32;;;;;;;1.08;0.63;;;;;;;21.84;53.14;100688.53;5088311;28;20016;-68
2021/09/13 09:59:57;;;;;;;1.90;0.73;;;;;;;22.03;51.80;100693.69;5106087;28;20054;-67
2021/09/13 10:02:24;;;;;;;1.10;0.70;;;;;;;22.22;52.21;100692.72;5105619;28;20024;-67
2021/09/13 10:04:55;;;;;;;1.45;0.70;;;;;;;22.40;51.20;100685.56;5106087;28;20028;-68
2021/09/13 10:07:21;;;;;;;2.15;0.60;;;;;;;22.33;51.04;100695.66;5105833;28;20028;-67
2021/09/13 10:09:46;;;;;;;2.42;0.47;;;;;;;22.22;49.77;100690.09;5105856;28;20034;-68
2021/09/13 10:12:13;;;;;;;1.40;0.60;;;;;;;22.03;49.50;100693.69;5105773;28;20050;-68
2021/09/13 10:14:39;;;;;;;1.67;0.93;;;;;;;22.00;51.84;100694.69;5105777;28;20020;-67
2021/09/13 10:17:05;;;;;;;0.85;0.60;;;;;;;22.18;51.52;100686.75;5105274;28;20028;-68
2021/09/13 10:19:31;;;;;;;0.80;0.60;;;;;;;22.58;53.06;100693.44;5105850;28;20031;-67
2021/09/13 10:21:57;;;;;;;0.95;0.60;;;;;;;23.27;51.30;100677.31;5105375;28;20040;-67
2021/09/13 10:24:28;;;;;;;1.33;0.75;;;;;;;23.47;49.95;100686.75;5105879;28;20028;-68
2021/09/13 10:27:01;;;;;;;2.38;0.68;;;;;;;23.32;49.93;100692.94;5105949;28;20027;-68
2021/09/13 10:29:28;;;;;;;1.25;0.70;;;;;;;23.26;47.51;100695.00;5105641;28;20016;-68
2021/09/13 10:31:55;;;;;;;0.85;0.43;;;;;;;23.05;49.51;100683.00;5105519;28;20387;-68
2021/09/13 10:34:31;;;;;;;1.30;0.60;;;;;;;22.86;49.30;100684.03;5105443;28;20076;-68
2021/09/13 10:37:14;;;;;;;1.42;0.80;;;;;;;23.09;51.58;100681.84;5105600;28;20035;-68
2021/09/13 10:40:21;;;;;;;2.17;0.90;;;;;;;23.48;50.35;100683.16;5106026;28;20095;-69
2021/09/13 10:42:49;;;;;;;2.88;0.63;;;;;;;23.81;49.93;100696.31;5062352;28;20056;-68
2021/09/13 10:45:22;;;;;;;1.20;0.50;;;;;;;23.91;46.86;100688.66;5105782;28;20039;-68
2021/09/13 10:47:59;;;;;;;2.40;0.63;;;;;;;23.42;46.89;100699.41;5105482;28;20039;-68
2021/09/13 10:50:35;;;;;;;1.55;0.73;;;;;;;23.07;47.88;100699.66;5105641;28;20027;-68
2021/09/13 10:53:04;;;;;;;1.65;0.50;;;;;;;22.73;45.52;100697.94;5105423;28;20020;-67
2021/09/13 10:55:41;;;;;;;2.28;0.73;;;;;;;22.40;45.45;100702.31;5105665;28;20035;-68
2021/09/13 10:58:11;;;;;;;1.15;0.55;;;;;;;22.20;47.85;100703.38;5105255;28;20114;-67
2021/09/13 11:00:40;;;;;;;1.08;0.50;;;;;;;22.40;48.87;100702.31;5105311;28;20057;-68
2021/09/13 11:03:32;;;;;;;1.83;0.82;;;;;;;22.77;47.22;100702.13;5105393;28;20395;-67
2021/09/13 11:06:13;;;;;;;4.60;0.70;;;;;;;22.84;47.56;100699.13;5105208;28;20020;-68
2021/09/13 11:08:47;;;;;;;1.05;0.57;;;;;;;23.33;46.41;100697.28;5105644;28;20044;-67
2021/09/13 11:11:31;;;;;;;1.33;0.55;;;;;;;23.37;47.15;100698.81;5105502;28;20024;-67
2021/09/13 11:14:19;;;;;;;0.95;0.60;;;;;;;23.62;46.05;100694.75;5105253;28;20503;-67
2021/09/13 11:16:53;;;;;;;1.25;0.85;;;;;;;23.47;46.96;100702.66;5086993;28;20020;-67
2021/09/13 11:19:19;;;;;;;1.52;0.63;;;;;;;23.74;48.19;100706.41;5105320;28;20031;-68
2021/09/13 11:21:48;;;;;;;1.65;0.77;;;;;;;24.44;47.51;100701.38;5104925;28;20492;-67
2021/09/13 11:24:19;;;;;;;1.95;0.50;;;;;;;23.52;46.27;100700.59;5105169;28;20032;-68
2021/09/13 11:26:53;;;;;;;3.63;0.90;;;;;;;22.02;49.68;100711.34;5106126;28;20023;-68
2021/09/13 11:29:32;;;;;;;2.08;0.70;;;;;;;20.83;51.92;100717.97;5108959;28;20414;-67